Time;durP1;ratioP1;P1;durP2;ratioP2;P2;SDS_P1;SDS_P2;PMS_P1;PMS_P2;Temp;Humidity;BMP_temperature;BMP_pressure;BME280_temperature;BME280_humidity;BME280_pressure;Samples;Min_cycle;Max_cycle;Signal;HPM_P1;HPM_P2
2023/04/23 00:01:38;;;;;;;17.88;14.20;;;14.00;68.60;;;;;;5029456;28;20041;-49
2023/04/23 00:04:07;;;;;;;17.88;14.48;;;14.00;68.60;;;;;;5022150;28;20048;-45
2023/04/23 00:06:35;;;;;;;17.73;15.32;;;14.00;68.70;;;;;;5029884;28;20420;-47
2023/04/23 00:09:02;;;;;;;17.73;14.70;;;13.90;68.70;;;;;;5029755;28;20506;-46
2023/04/23 00:11:32;;;;;;;20.02;15.68;;;13.90;68.60;;;;;;5029181;28;20080;-46
2023/04/23 00:13:59;;;;;;;19.20;15.20;;;13.90;68.60;;;;;;5028093;28;20171;-46
2023/04/23 00:16:28;;;;;;;16.58;14.32;;;13.90;68.60;;;;;;5029492;28;20444;-48
2023/04/23 00:18:55;;;;;;;19.67;15.75;;;13.90;68.70;;;;;;5029471;28;20042;-49
2023/04/23 00:21:23;;;;;;;17.52;14.95;;;13.90;68.80;;;;;;5026063;28;20437;-49
2023/04/23 00:23:54;;;;;;;19.15;15.25;;;13.90;68.70;;;;;;5029156;28;20072;-49
2023/04/23 00:26:21;;;;;;;18.02;14.55;;;13.90;68.60;;;;;;5062696;22;20053;-47
2023/04/23 00:28:47;;;;;;;16.90;14.52;;;13.80;68.60;;;;;;5048839;28;20048;-46
2023/04/23 00:31:14;;;;;;;18.20;15.75;;;13.80;68.70;;;;;;5028964;28;20045;-48
2023/04/23 00:33:41;;;;;;;15.60;13.75;;;13.80;68.80;;;;;;5041825;28;20459;-51
2023/04/23 00:36:07;;;;;;;15.20;13.30;;;13.80;68.70;;;;;;5038374;28;20132;-47
2023/04/23 00:38:35;;;;;;;16.23;13.57;;;13.80;68.60;;;;;;5048767;28;20378;-47
2023/04/23 00:41:01;;;;;;;18.52;14.88;;;13.70;68.60;;;;;;5046978;28;20497;-48
2023/04/23 00:43:28;;;;;;;16.65;14.85;;;13.70;69.30;;;;;;5047184;28;20044;-50
2023/04/23 00:45:59;;;;;;;16.60;13.25;;;13.70;68.70;;;;;;5030435;28;20577;-46
2023/04/23 00:48:33;;;;;;;16.38;13.48;;;13.70;68.80;;;;;;5024438;28;20064;-48
2023/04/23 00:51:03;;;;;;;14.77;13.23;;;13.70;68.80;;;;;;5022075;28;20067;-47
2023/04/23 00:53:35;;;;;;;16.23;14.07;;;13.60;68.80;;;;;;5019743;28;20120;-47
2023/04/23 00:56:04;;;;;;;15.20;13.20;;;13.60;68.70;;;;;;5044561;28;20520;-48
2023/04/23 00:58:32;;;;;;;16.00;13.60;;;13.60;68.70;;;;;;5048099;28;20044;-49
2023/04/23 01:01:05;;;;;;;15.80;13.93;;;13.50;68.60;;;;;;5049198;28;20524;-48
2023/04/23 01:03:35;;;;;;;17.13;14.48;;;13.50;68.80;;;;;;5032560;28;20034;-46
2023/04/23 01:06:04;;;;;;;17.95;14.07;;;13.50;68.60;;;;;;5025632;28;20842;-47
2023/04/23 01:08:33;;;;;;;18.20;14.68;;;13.40;68.60;;;;;;5040981;28;20521;-49
2023/04/23 01:11:03;;;;;;;17.10;14.82;;;13.40;68.60;;;;;;5047923;28;20037;-47
2023/04/23 01:13:32;;;;;;;18.73;14.65;;;13.30;68.60;;;;;;5040271;28;20064;-47
2023/04/23 01:15:58;;;;;;;16.92;13.77;;;13.30;68.60;;;;;;5048135;28;20037;-46
2023/04/23 01:18:30;;;;;;;15.38;13.73;;;13.20;68.50;;;;;;5048432;28;20033;-47
2023/04/23 01:21:00;;;;;;;14.93;12.75;;;13.20;68.40;;;;;;5029620;28;20071;-51
2023/04/23 01:23:32;;;;;;;17.10;13.18;;;13.20;68.30;;;;;;5048711;28;20087;-50
2023/04/23 01:26:00;;;;;;;16.65;12.68;;;13.10;68.40;;;;;;5030898;28;20053;-47
2023/04/23 01:28:28;;;;;;;16.30;12.73;;;13.10;68.40;;;;;;5043052;28;20084;-46
2023/04/23 01:30:58;;;;;;;13.90;11.68;;;13.10;68.30;;;;;;5043312;28;20048;-50
2023/04/23 01:33:32;;;;;;;14.80;12.25;;;13.00;68.20;;;;;;5016731;28;20042;-51
2023/04/23 01:36:02;;;;;;;13.60;11.38;;;13.00;68.20;;;;;;5042124;28;20037;-48
2023/04/23 01:38:31;;;;;;;13.63;11.52;;;12.90;67.90;;;;;;5024628;28;20037;-47
2023/04/23 01:40:58;;;;;;;11.88;10.60;;;12.90;68.10;;;;;;5041409;28;20044;-48
2023/04/23 01:43:25;;;;;;;12.73;11.32;;;12.80;68.10;;;;;;5048454;28;20540;-49
2023/04/23 01:45:56;;;;;;;14.05;10.65;;;12.80;68.10;;;;;;5048950;28;20053;-47
2023/04/23 01:48:23;;;;;;;12.57;10.65;;;12.80;68.20;;;;;;5047724;28;20041;-51
2023/04/23 01:50:53;;;;;;;14.68;13.07;;;12.80;68.40;;;;;;5020718;28;20037;-51
2023/04/23 01:53:22;;;;;;;18.00;12.70;;;12.80;68.70;;;;;;5045229;28;20099;-47
2023/04/23 01:55:54;;;;;;;18.35;14.98;;;12.80;68.70;;;;;;5049511;28;20400;-48
2023/04/23 01:58:22;;;;;;;15.57;12.85;;;12.80;69.00;;;;;;5017284;28;20044;-51
2023/04/23 02:00:50;;;;;;;16.70;13.90;;;12.70;69.00;;;;;;5046465;28;20060;-47
2023/04/23 02:03:18;;;;;;;16.15;13.45;;;12.80;69.20;;;;;;5049295;28;20041;-51
2023/04/23 02:05:48;;;;;;;17.17;14.05;;;12.70;69.30;;;;;;5022326;28;20412;-47
2023/04/23 02:08:15;;;;;;;16.75;14.70;;;12.80;69.60;;;;;;5031382;28;20055;-48
2023/04/23 02:10:44;;;;;;;15.57;13.65;;;12.80;69.80;;;;;;5050275;28;20045;-46
2023/04/23 02:13:11;;;;;;;17.85;14.25;;;12.80;70.00;;;;;;5026206;28;20045;-47
2023/04/23 02:15:37;;;;;;;17.63;14.82;;;12.90;70.10;;;;;;5044548;28;20116;-47
2023/04/23 02:18:07;;;;;;;17.45;14.68;;;12.90;70.20;;;;;;5051573;28;20033;-51
2023/04/23 02:20:40;;;;;;;17.63;14.68;;;12.80;70.40;;;;;;5043765;28;20048;-45
2023/04/23 02:23:07;;;;;;;16.52;14.07;;;13.00;70.30;;;;;;5046626;28;20052;-47
2023/04/23 02:25:38;;;;;;;17.50;14.25;;;13.00;70.30;;;;;;5014656;28;20042;-46
2023/04/23 02:28:06;;;;;;;15.70;13.80;;;13.10;70.30;;;;;;5049897;28;20048;-48
2023/04/23 02:30:36;;;;;;;19.17;13.73;;;13.10;70.10;;;;;;5051159;28;20645;-49
2023/04/23 02:33:03;;;;;;;15.27;13.70;;;13.10;70.10;;;;;;5023932;28;20053;-49
2023/04/23 02:35:32;;;;;;;15.82;13.20;;;13.10;69.90;;;;;;5021909;28;20114;-51
2023/04/23 02:38:09;;;;;;;18.55;13.60;;;13.10;69.90;;;;;;5051093;28;20082;-47
2023/04/23 02:40:36;;;;;;;17.52;13.45;;;13.10;69.60;;;;;;5049364;28;20048;-51
2023/04/23 02:43:05;;;;;;;13.77;12.35;;;13.10;69.70;;;;;;5032784;28;20069;-51
2023/04/23 02:45:33;;;;;;;15.93;12.35;;;13.10;69.70;;;;;;5051700;28;20040;-47
2023/04/23 02:48:03;;;;;;;17.08;13.50;;;13.20;69.70;;;;;;5050171;28;20045;-47
2023/04/23 02:50:30;;;;;;;13.95;12.48;;;13.20;69.80;;;;;;5027283;28;20057;-45
2023/04/23 02:52:56;;;;;;;15.65;13.48;;;13.10;69.70;;;;;;5026068;28;20045;-51
2023/04/23 02:55:30;;;;;;;16.02;13.80;;;13.10;69.70;;;;;;5048221;28;20068;-48
2023/04/23 02:57:59;;;;;;;15.85;13.18;;;13.10;69.80;;;;;;5019388;28;20497;-48
2023/04/23 03:00:30;;;;;;;14.93;13.20;;;13.10;69.80;;;;;;5049082;28;20040;-49
2023/04/23 03:02:57;;;;;;;17.45;14.65;;;13.20;69.90;;;;;;5031899;28;20052;-47
2023/04/23 03:05:24;;;;;;;16.38;12.88;;;13.20;70.00;;;;;;5027397;28;20045;-46
2023/04/23 03:07:51;;;;;;;15.70;13.32;;;13.20;70.00;;;;;;5049979;28;20049;-50
2023/04/23 03:10:18;;;;;;;15.10;13.43;;;13.10;70.00;;;;;;5031001;28;20523;-47
2023/04/23 03:12:44;;;;;;;13.90;12.45;;;13.10;69.90;;;;;;5028931;28;20493;-50
2023/04/23 03:15:11;;;;;;;12.68;11.38;;;13.10;70.00;;;;;;5025299;28;20045;-48
2023/04/23 03:17:40;;;;;;;16.08;13.40;;;13.10;70.00;;;;;;5048431;28;20076;-48
2023/04/23 03:20:10;;;;;;;14.77;12.80;;;13.10;70.00;;;;;;5033448;28;20048;-48
2023/04/23 03:22:38;;;;;;;13.63;12.20;;;13.10;70.10;;;;;;5015218;28;20052;-50
2023/04/23 03:25:05;;;;;;;13.68;12.25;;;13.10;70.10;;;;;;5014112;28;20053;-50
2023/04/23 03:27:32;;;;;;;14.38;12.60;;;13.20;70.20;;;;;;5044810;28;20593;-48
2023/04/23 03:30:00;;;;;;;14.98;12.35;;;13.10;70.10;;;;;;5024964;28;20128;-49
2023/04/23 03:32:28;;;;;;;14.48;11.85;;;13.10;70.20;;;;;;5042470;28;20046;-46
2023/04/23 03:34:55;;;;;;;15.15;12.60;;;13.20;70.30;;;;;;5043856;28;20129;-49
2023/04/23 03:37:22;;;;;;;15.07;12.52;;;13.20;70.40;;;;;;5030575;28;20049;-47
2023/04/23 03:39:51;;;;;;;15.82;12.10;;;13.20;70.40;;;;;;5042949;28;20033;-48
2023/04/23 03:42:17;;;;;;;12.63;11.32;;;13.20;70.50;;;;;;5023559;28;20046;-47
2023/04/23 03:44:46;;;;;;;13.15;11.38;;;13.30;70.50;;;;;;5050932;28;20612;-47
2023/04/23 03:47:15;;;;;;;14.27;11.30;;;13.30;70.50;;;;;;5031092;28;20051;-46
2023/04/23 03:49:42;;;;;;;11.57;10.38;;;13.30;70.50;;;;;;5022249;28;20073;-48
2023/04/23 03:52:09;;;;;;;12.48;11.20;;;13.30;70.40;;;;;;5047674;28;20052;-48
2023/04/23 03:54:38;;;;;;;11.80;10.30;;;13.30;70.40;;;;;;5024216;28;20053;-46
2023/04/23 03:57:13;;;;;;;13.05;11.73;;;13.30;70.20;;;;;;5027538;28;20132;-49
2023/04/23 03:59:58;;;;;;;10.90;9.80;;;13.30;70.00;;;;;;5048394;28;20063;-47
2023/04/23 04:02:25;;;;;;;12.98;10.43;;;13.30;69.90;;;;;;5047890;28;20049;-49
2023/04/23 04:04:53;;;;;;;10.80;9.70;;;13.30;69.70;;;;;;5047606;28;20041;-51
2023/04/23 04:07:23;;;;;;;11.45;10.32;;;13.30;69.70;;;;;;5044795;28;20072;-48
2023/04/23 04:09:52;;;;;;;11.95;10.48;;;13.30;69.60;;;;;;5049982;28;20496;-51
2023/04/23 04:12:19;;;;;;;11.55;10.35;;;13.20;69.70;;;;;;5046965;28;20527;-51
2023/04/23 04:14:45;;;;;;;11.25;10.13;;;13.20;69.60;;;;;;5049853;28;20052;-49
2023/04/23 04:17:15;;;;;;;11.05;9.88;;;13.20;69.70;;;;;;5050721;28;20037;-50
2023/04/23 04:19:44;;;;;;;10.25;9.20;;;13.20;69.90;;;;;;5041582;28;20115;-51
2023/04/23 04:22:11;;;;;;;12.00;9.77;;;13.20;70.10;;;;;;5040781;28;20506;-51
2023/04/23 04:24:40;;;;;;;11.27;9.60;;;13.20;70.20;;;;;;5049922;28;20203;-46
2023/04/23 04:27:08;;;;;;;12.45;9.48;;;13.20;70.40;;;;;;5049945;28;20073;-49
2023/04/23 04:29:40;;;;;;;9.68;8.65;;;13.20;70.60;;;;;;5048707;28;20596;-47
2023/04/23 04:32:08;;;;;;;10.57;9.48;;;13.20;70.70;;;;;;5049697;28;20601;-47
2023/04/23 04:34:37;;;;;;;11.70;9.30;;;13.20;70.80;;;;;;5023927;28;20125;-50
2023/04/23 04:37:13;;;;;;;9.27;8.38;;;13.30;70.90;;;;;;5047929;28;20047;-49
2023/04/23 04:39:44;;;;;;;10.10;9.07;;;13.30;70.90;;;;;;5048618;28;20048;-47
2023/04/23 04:42:11;;;;;;;9.80;8.77;;;13.40;70.90;;;;;;5043135;28;20456;-49
2023/04/23 04:44:42;;;;;;;9.25;8.00;;;13.40;70.90;;;;;;5049651;28;20087;-51
2023/04/23 04:47:09;;;;;;;9.20;7.85;;;13.40;70.90;;;;;;5048712;28;20075;-47
2023/04/23 04:49:38;;;;;;;9.52;8.63;;;13.50;71.00;;;;;;5045820;28;20045;-51
2023/04/23 04:52:05;;;;;;;10.10;8.90;;;13.50;71.00;;;;;;5037698;28;20091;-48
2023/04/23 04:54:32;;;;;;;8.55;7.63;;;13.50;71.00;;;;;;5043841;28;20124;-48
2023/04/23 04:56:58;;;;;;;9.25;8.23;;;13.60;71.00;;;;;;5047637;28;20052;-49
2023/04/23 04:59:27;;;;;;;9.13;8.00;;;13.70;71.10;;;;;;5041819;28;20041;-47
2023/04/23 05:01:54;;;;;;;9.10;7.43;;;13.70;71.20;;;;;;5049340;28;20041;-51
2023/04/23 05:04:23;;;;;;;9.07;7.60;;;13.70;71.10;;;;;;5047475;28;20124;-51
2023/04/23 05:06:54;;;;;;;8.45;7.65;;;13.80;71.20;;;;;;5045695;28;20095;-48
2023/04/23 05:09:21;;;;;;;9.65;8.25;;;13.80;71.10;;;;;;5049248;28;20722;-51
2023/04/23 05:11:47;;;;;;;8.30;7.07;;;13.80;71.00;;;;;;5043688;28;20091;-50
2023/04/23 05:14:16;;;;;;;7.68;6.88;;;13.90;71.10;;;;;;5048853;28;20029;-50
2023/04/23 05:16:43;;;;;;;8.23;7.20;;;13.90;71.00;;;;;;5045437;28;20049;-47
2023/04/23 05:19:09;;;;;;;10.00;6.75;;;13.90;71.00;;;;;;5028631;28;20044;-51
2023/04/23 05:21:36;;;;;;;7.93;7.13;;;14.00;71.00;;;;;;5038287;28;20231;-47
2023/04/23 05:24:03;;;;;;;7.38;6.55;;;14.00;71.00;;;;;;5031769;28;20045;-45
2023/04/23 05:26:29;;;;;;;8.75;7.65;;;14.00;70.90;;;;;;5031197;28;20087;-47
2023/04/23 05:28:56;;;;;;;7.82;7.13;;;14.10;70.80;;;;;;5038366;28;20469;-46
2023/04/23 05:31:23;;;;;;;8.52;7.35;;;14.10;70.70;;;;;;5048584;28;20547;-47
2023/04/23 05:33:50;;;;;;;9.45;7.95;;;14.20;70.70;;;;;;5043353;28;20055;-50
2023/04/23 05:36:19;;;;;;;8.10;7.25;;;14.20;70.60;;;;;;5046346;28;20049;-48
2023/04/23 05:38:48;;;;;;;8.75;6.93;;;14.20;70.50;;;;;;5035898;28;20033;-51
2023/04/23 05:41:15;;;;;;;9.98;7.50;;;14.30;70.70;;;;;;5046536;28;20067;-46
2023/04/23 05:43:42;;;;;;;8.23;7.13;;;14.30;70.50;;;;;;5036061;28;20512;-51
2023/04/23 05:46:09;;;;;;;8.18;6.75;;;14.30;70.30;;;;;;5035069;28;20041;-51
2023/04/23 05:48:35;;;;;;;7.30;6.60;;;14.30;70.20;;;;;;5052223;28;20607;-47
2023/04/23 05:51:02;;;;;;;7.88;6.82;;;14.30;70.10;;;;;;5050932;28;20041;-51
2023/04/23 05:53:29;;;;;;;7.45;6.75;;;14.30;70.00;;;;;;5037505;28;20057;-51
2023/04/23 05:55:56;;;;;;;7.43;6.63;;;14.30;69.80;;;;;;5052528;28;20033;-48
2023/04/23 05:58:24;;;;;;;8.07;6.72;;;14.30;69.80;;;;;;5050892;28;20033;-47
2023/04/23 06:00:52;;;;;;;6.88;6.05;;;14.30;69.90;;;;;;5050337;28;20041;-51
2023/04/23 06:03:19;;;;;;;6.75;6.07;;;14.30;69.80;;;;;;5051119;28;20041;-51
2023/04/23 06:05:46;;;;;;;8.27;6.07;;;14.20;69.80;;;;;;5046208;28;20596;-50
2023/04/23 06:08:13;;;;;;;6.78;6.07;;;14.20;69.90;;;;;;5047946;28;20049;-51
2023/04/23 06:10:39;;;;;;;6.68;5.93;;;14.20;69.90;;;;;;5050913;28;20045;-51
2023/04/23 06:13:06;;;;;;;7.22;6.28;;;14.20;70.10;;;;;;5046019;28;20045;-49
2023/04/23 06:15:33;;;;;;;6.75;6.00;;;14.20;70.30;;;;;;5050858;28;20029;-51
2023/04/23 06:18:00;;;;;;;5.95;5.45;;;14.20;71.00;;;;;;5052149;28;20408;-51
2023/04/23 06:20:26;;;;;;;6.88;5.85;;;14.20;70.50;;;;;;5050901;28;20032;-50
2023/04/23 06:22:53;;;;;;;7.72;6.35;;;14.20;70.60;;;;;;5051373;28;20040;-47
2023/04/23 06:25:20;;;;;;;6.40;5.80;;;14.20;70.70;;;;;;5051414;28;20428;-50
2023/04/23 06:27:46;;;;;;;6.30;5.70;;;14.20;70.80;;;;;;5046614;28;20033;-51
2023/04/23 06:30:18;;;;;;;5.65;5.00;;;14.30;70.80;;;;;;5028432;28;20068;-51
2023/04/23 06:32:45;;;;;;;5.93;4.93;;;14.30;70.80;;;;;;5025801;28;20067;-47
2023/04/23 06:35:12;;;;;;;6.55;5.38;;;14.30;70.80;;;;;;5050146;28;20033;-48
2023/04/23 06:37:38;;;;;;;6.65;5.55;;;14.30;70.80;;;;;;5050840;28;20047;-51
2023/04/23 06:40:05;;;;;;;6.47;5.88;;;14.40;70.90;;;;;;5050580;28;20041;-51
2023/04/23 06:42:32;;;;;;;7.10;5.65;;;14.40;70.90;;;;;;5032352;28;20041;-46
2023/04/23 06:45:32;;;;;;;5.72;5.18;;;14.50;71.00;;;;;;5006379;28;20060;-51
2023/04/23 06:47:59;;;;;;;6.90;4.90;;;14.50;70.80;;;;;;5046034;28;20029;-48
2023/04/23 06:50:28;;;;;;;5.90;5.30;;;14.60;71.10;;;;;;5051318;28;20068;-51
2023/04/23 06:52:55;;;;;;;5.78;5.28;;;14.60;71.00;;;;;;5038676;28;20041;-50
2023/04/23 06:55:25;;;;;;;6.32;5.07;;;14.60;71.00;;;;;;5030139;28;20096;-50
2023/04/23 06:57:52;;;;;;;5.97;4.88;;;14.70;70.90;;;;;;5044287;28;20599;-51
2023/04/23 07:00:19;;;;;;;5.55;4.93;;;14.70;70.80;;;;;;5050916;28;20033;-52
2023/04/23 07:02:46;;;;;;;5.75;5.15;;;14.80;70.90;;;;;;5033108;28;20060;-45
2023/04/23 07:05:13;;;;;;;5.55;5.03;;;14.80;70.80;;;;;;5045538;28;20041;-51
2023/04/23 07:07:42;;;;;;;5.55;4.88;;;14.90;70.70;;;;;;5047586;28;20440;-51
2023/04/23 07:10:11;;;;;;;6.55;5.40;;;14.90;70.60;;;;;;5051423;28;20386;-49
2023/04/23 07:12:40;;;;;;;4.95;4.28;;;14.90;70.40;;;;;;5048315;28;20048;-52
2023/04/23 07:15:07;;;;;;;4.97;4.10;;;15.00;70.60;;;;;;5032981;28;20040;-51
2023/04/23 07:17:34;;;;;;;5.00;4.10;;;15.00;70.50;;;;;;5051196;28;20044;-51
2023/04/23 07:20:05;;;;;;;4.50;4.10;;;15.10;70.30;;;;;;5050186;28;20033;-51
2023/04/23 07:22:32;;;;;;;5.40;4.15;;;15.10;70.30;;;;;;5049471;28;20528;-50
2023/04/23 07:24:59;;;;;;;4.07;3.65;;;15.20;70.10;;;;;;5042598;28;20753;-48
2023/04/23 07:27:26;;;;;;;5.53;3.83;;;15.20;69.90;;;;;;5099349;22;20079;-46
2023/04/23 07:29:55;;;;;;;6.20;3.60;;;15.30;69.80;;;;;;5049910;28;20037;-47
2023/04/23 07:32:24;;;;;;;5.82;4.68;;;15.30;69.60;;;;;;5050301;28;20033;-49
2023/04/23 07:34:57;;;;;;;3.45;3.15;;;15.40;69.40;;;;;;5049774;28;20029;-46
2023/04/23 07:37:26;;;;;;;4.10;3.00;;;15.50;69.20;;;;;;5042073;28;20091;-47
2023/04/23 07:39:53;;;;;;;4.85;3.15;;;15.50;69.10;;;;;;5030997;28;20048;-48
2023/04/23 07:42:21;;;;;;;7.40;3.67;;;15.50;69.10;;;;;;5030883;28;20452;-48
2023/04/23 07:44:48;;;;;;;4.82;2.88;;;15.60;68.90;;;;;;5029443;28;20048;-47
2023/04/23 07:47:15;;;;;;;6.70;2.97;;;15.70;68.70;;;;;;5028117;28;20041;-47
2023/04/23 07:49:41;;;;;;;5.07;2.60;;;15.70;68.80;;;;;;5027485;28;20068;-46
2023/04/23 07:52:11;;;;;;;6.30;2.78;;;15.80;68.30;;;;;;5030141;28;20048;-51
2023/04/23 07:54:40;;;;;;;5.50;2.72;;;15.80;68.30;;;;;;5027943;28;20049;-50
2023/04/23 07:57:07;;;;;;;7.38;2.97;;;15.90;68.30;;;;;;5026301;28;20060;-46
2023/04/23 07:59:33;;;;;;;4.32;2.63;;;15.90;68.00;;;;;;5028082;28;20132;-47
2023/04/23 08:02:00;;;;;;;5.32;3.25;;;16.00;67.80;;;;;;5028084;28;20551;-51
2023/04/23 08:04:27;;;;;;;4.10;2.40;;;16.00;67.60;;;;;;5029941;28;20045;-46
2023/04/23 08:06:54;;;;;;;3.58;2.85;;;16.10;67.10;;;;;;5026583;28;20041;-46
2023/04/23 08:09:20;;;;;;;3.70;2.67;;;16.10;66.90;;;;;;5029386;28;20066;-47
2023/04/23 08:11:47;;;;;;;3.70;2.75;;;16.20;66.60;;;;;;5012105;28;20100;-50
2023/04/23 08:14:14;;;;;;;4.63;2.85;;;16.20;66.70;;;;;;5029439;28;20137;-51
2023/04/23 08:16:40;;;;;;;5.38;2.20;;;16.30;66.40;;;;;;5030591;28;20048;-50
2023/04/23 08:19:07;;;;;;;5.43;2.20;;;16.30;66.20;;;;;;5029869;28;20042;-53
2023/04/23 08:21:34;;;;;;;3.92;2.25;;;16.40;66.10;;;;;;5011195;28;20461;-51
2023/04/23 08:24:01;;;;;;;4.78;2.13;;;16.40;65.80;;;;;;5027402;28;20038;-51
2023/04/23 08:26:29;;;;;;;4.15;2.00;;;16.50;65.80;;;;;;5026616;28;20108;-49
2023/04/23 08:28:56;;;;;;;5.03;2.50;;;16.50;65.50;;;;;;5022499;28;20044;-51
2023/04/23 08:31:22;;;;;;;3.47;2.30;;;16.60;65.60;;;;;;5029634;28;20044;-49
2023/04/23 08:33:53;;;;;;;3.28;2.15;;;16.70;65.20;;;;;;5027428;28;20060;-48
2023/04/23 08:36:20;;;;;;;3.97;2.30;;;16.70;64.60;;;;;;5028858;28;20040;-47
2023/04/23 08:38:47;;;;;;;5.40;2.70;;;16.80;64.50;;;;;;5030382;28;20046;-47
2023/04/23 08:41:16;;;;;;;2.63;1.90;;;16.80;64.70;;;;;;5024958;28;20604;-48
2023/04/23 08:43:50;;;;;;;8.35;2.45;;;16.90;64.00;;;;;;5005381;28;20533;-48
2023/04/23 08:46:18;;;;;;;3.55;2.10;;;17.00;64.00;;;;;;5028340;28;20563;-51
2023/04/23 08:48:46;;;;;;;2.90;1.80;;;17.10;63.90;;;;;;5030115;28;20045;-51
2023/04/23 08:51:17;;;;;;;6.88;2.42;;;17.20;63.70;;;;;;5029074;28;20037;-47
2023/04/23 08:53:49;;;;;;;5.50;2.37;;;17.30;63.50;;;;;;5027472;28;20068;-51
2023/04/23 08:56:16;;;;;;;2.65;2.42;;;17.40;63.40;;;;;;5023425;28;20052;-47
2023/04/23 08:58:45;;;;;;;2.97;2.05;;;17.50;63.00;;;;;;5028667;28;20037;-47
2023/04/23 09:01:12;;;;;;;3.22;1.77;;;17.60;62.60;;;;;;5025734;28;20037;-48
2023/04/23 09:03:39;;;;;;;4.90;1.80;;;17.70;62.30;;;;;;5026668;28;20068;-51
2023/04/23 09:06:06;;;;;;;4.70;1.85;;;17.80;61.90;;;;;;5033141;28;20040;-49
2023/04/23 09:08:33;;;;;;;4.95;1.90;;;17.90;61.80;;;;;;5034059;28;20117;-50
2023/04/23 09:11:01;;;;;;;3.63;1.98;;;17.90;61.80;;;;;;5033480;28;20064;-52
2023/04/23 09:13:30;;;;;;;2.13;1.52;;;18.00;61.40;;;;;;5022570;28;20056;-48
2023/04/23 09:15:57;;;;;;;2.53;1.73;;;18.10;60.50;;;;;;5025210;28;20038;-51
2023/04/23 09:18:24;;;;;;;2.85;1.63;;;18.20;60.40;;;;;;5033636;28;20040;-51
2023/04/23 09:20:55;;;;;;;3.13;1.35;;;18.30;60.10;;;;;;5029358;28;20046;-47
2023/04/23 09:23:22;;;;;;;4.50;2.10;;;18.30;59.80;;;;;;5025499;28;20033;-50
2023/04/23 09:25:49;;;;;;;4.10;1.55;;;18.40;59.00;;;;;;5032532;28;20049;-48
2023/04/23 09:28:18;;;;;;;3.40;1.63;;;18.40;59.20;;;;;;5030042;28;20042;-50
2023/04/23 09:30:45;;;;;;;2.28;1.75;;;18.50;59.10;;;;;;5027593;28;20068;-50
2023/04/23 09:33:12;;;;;;;5.00;1.40;;;18.60;58.90;;;;;;5029248;28;20042;-46
2023/04/23 09:35:41;;;;;;;3.22;1.60;;;18.70;59.30;;;;;;5032520;28;20386;-48
2023/04/23 09:38:09;;;;;;;7.38;1.52;;;18.80;58.40;;;;;;5031522;28;20095;-46
2023/04/23 09:40:37;;;;;;;3.30;1.65;;;18.90;58.40;;;;;;5030725;28;20609;-50
2023/04/23 09:43:05;;;;;;;3.55;1.52;;;19.10;58.80;;;;;;5035269;28;20121;-50
2023/04/23 09:45:34;;;;;;;2.03;1.13;;;19.20;58.40;;;;;;5033606;28;20111;-49
2023/04/23 09:48:01;;;;;;;3.08;1.35;;;19.40;57.20;;;;;;5032793;28;20045;-49
2023/04/23 09:50:37;;;;;;;5.40;1.50;;;19.50;56.90;;;;;;5032324;28;20429;-51
2023/04/23 09:53:07;;;;;;;3.05;1.50;;;19.60;55.80;;;;;;5028100;28;20041;-51
2023/04/23 09:55:37;;;;;;;9.85;2.28;;;19.80;55.80;;;;;;5030194;28;20033;-48
2023/04/23 09:58:09;;;;;;;3.15;1.60;;;19.90;55.20;;;;;;5031195;28;20041;-50
2023/04/23 10:00:37;;;;;;;12.50;1.30;;;20.00;54.80;;;;;;5025165;28;20038;-47
2023/04/23 10:03:06;;;;;;;2.13;1.08;;;20.10;54.80;;;;;;5029706;28;20041;-47
2023/04/23 10:05:40;;;;;;;3.20;1.92;;;20.30;54.70;;;;;;5033240;28;20525;-49
2023/04/23 10:08:12;;;;;;;2.15;1.30;;;20.40;54.20;;;;;;5029494;28;20038;-51
2023/04/23 10:10:39;;;;;;;1.80;1.27;;;20.40;54.30;;;;;;5028928;28;20124;-50
2023/04/23 10:13:27;;;;;;;1.75;1.10;;;20.50;53.60;;;;;;5033316;28;20045;-49
2023/04/23 10:15:55;;;;;;;2.20;1.17;;;20.60;53.50;;;;;;5027120;28;20073;-48
2023/04/23 10:18:28;;;;;;;2.40;1.15;;;20.60;53.30;;;;;;5031471;28;20037;-50
2023/04/23 10:20:56;;;;;;;2.03;1.42;;;20.60;52.70;;;;;;5026629;28;20048;-48
2023/04/23 10:23:24;;;;;;;1.77;0.82;;;20.60;51.90;;;;;;5022703;28;20069;-51
2023/04/23 10:25:53;;;;;;;3.80;1.17;;;20.60;53.00;;;;;;5030310;28;20048;-48
2023/04/23 10:28:27;;;;;;;2.53;1.08;;;20.60;52.50;;;;;;5031660;28;20048;-52
2023/04/23 10:30:55;;;;;;;3.90;1.08;;;20.50;52.00;;;;;;5029455;28;20045;-52
2023/04/23 10:33:30;;;;;;;1.38;0.90;;;20.50;51.70;;;;;;5027979;28;20049;-47
2023/04/23 10:36:19;;;;;;;1.85;1.33;;;20.50;51.50;;;;;;5024413;28;20037;-49
2023/04/23 10:38:48;;;;;;;1.40;0.98;;;20.50;52.10;;;;;;5031105;28;20038;-50
2023/04/23 10:41:30;;;;;;;1.65;1.20;;;20.60;52.60;;;;;;5031601;28;20418;-49
2023/04/23 10:43:58;;;;;;;2.70;1.27;;;20.60;52.80;;;;;;5025300;28;20061;-49
2023/04/23 10:46:30;;;;;;;2.33;1.08;;;20.70;52.90;;;;;;5030262;28;20103;-47
2023/04/23 10:49:13;;;;;;;3.50;1.13;;;20.80;51.60;;;;;;5032783;28;20501;-48
2023/04/23 10:51:46;;;;;;;2.45;0.90;;;21.00;51.90;;;;;;5031389;28;20052;-51
2023/04/23 10:54:18;;;;;;;1.27;0.80;;;21.10;51.80;;;;;;5031360;28;20043;-49
2023/04/23 10:56:56;;;;;;;1.17;0.80;;;21.20;51.90;;;;;;5023938;28;20046;-52
2023/04/23 10:59:23;;;;;;;2.33;0.73;;;21.20;50.90;;;;;;5032631;28;20107;-49
2023/04/23 11:01:52;;;;;;;2.20;0.90;;;21.30;50.70;;;;;;5027987;28;20073;-49
2023/04/23 11:04:27;;;;;;;1.65;0.90;;;21.30;50.80;;;;;;5026921;28;20038;-49
2023/04/23 11:07:04;;;;;;;1.88;0.93;;;21.40;50.80;;;;;;5021241;28;20041;-51
2023/04/23 11:09:31;;;;;;;3.38;0.77;;;21.40;49.50;;;;;;5030125;28;20375;-51
2023/04/23 11:12:00;;;;;;;1.52;1.00;;;21.50;50.40;;;;;;5028941;28;20080;-49
2023/04/23 11:14:37;;;;;;;4.03;0.90;;;21.50;49.90;;;;;;5027048;28;20635;-51
2023/04/23 11:17:05;;;;;;;3.75;1.10;;;21.50;49.50;;;;;;5021943;28;20113;-47
2023/04/23 11:19:36;;;;;;;3.78;0.98;;;21.60;49.90;;;;;;5010864;28;20037;-48
2023/04/23 11:22:13;;;;;;;2.08;1.13;;;21.60;49.20;;;;;;5027756;28;20550;-47
2023/04/23 11:24:41;;;;;;;2.72;1.17;;;21.70;48.90;;;;;;5032003;28;20046;-47
2023/04/23 11:27:10;;;;;;;2.53;1.00;;;21.70;49.60;;;;;;5028798;28;20057;-47
2023/04/23 11:29:39;;;;;;;2.47;1.70;;;21.60;49.60;;;;;;5028420;28;20592;-49
2023/04/23 11:32:09;;;;;;;3.25;1.10;;;21.70;49.70;;;;;;5025510;28;20051;-50
2023/04/23 11:34:49;;;;;;;3.05;1.30;;;21.70;49.40;;;;;;5025108;28;20045;-48
2023/04/23 11:37:17;;;;;;;1.85;1.15;;;21.70;49.10;;;;;;5024293;28;20436;-48
2023/04/23 11:39:46;;;;;;;1.98;1.15;;;21.70;49.00;;;;;;5027619;28;20037;-48
2023/04/23 11:42:14;;;;;;;1.83;1.20;;;21.80;49.00;;;;;;5029081;28;20046;-47
2023/04/23 11:44:42;;;;;;;2.45;1.23;;;21.80;48.60;;;;;;5030556;28;20037;-50
2023/04/23 11:47:13;;;;;;;2.22;0.85;;;21.80;48.40;;;;;;5022790;28;20049;-49
2023/04/23 11:49:41;;;;;;;2.97;1.13;;;21.80;48.60;;;;;;5024325;28;20051;-47
2023/04/23 11:52:10;;;;;;;1.85;0.85;;;21.90;48.50;;;;;;5028388;28;20049;-51
2023/04/23 11:54:39;;;;;;;4.78;1.20;;;21.90;48.30;;;;;;5029707;28;20045;-49
2023/04/23 11:57:07;;;;;;;2.25;0.95;;;21.90;48.40;;;;;;5029445;28;20043;-51
2023/04/23 11:59:35;;;;;;;1.17;0.75;;;22.00;48.10;;;;;;5012999;28;20536;-50
2023/04/23 12:02:01;;;;;;;0.93;0.77;;;22.10;48.10;;;;;;5029677;28;20051;-50
2023/04/23 12:04:30;;;;;;;3.35;1.15;;;22.20;47.10;;;;;;4993220;28;20053;-48
2023/04/23 12:06:58;;;;;;;1.42;0.73;;;22.30;46.60;;;;;;5016769;28;20057;-46
2023/04/23 12:09:26;;;;;;;2.45;0.68;;;22.40;46.40;;;;;;5026642;28;20064;-50
2023/04/23 12:11:55;;;;;;;2.72;0.80;;;22.50;45.60;;;;;;5029163;28;20049;-51
2023/04/23 12:14:32;;;;;;;1.30;0.60;;;22.50;45.20;;;;;;5024642;28;20034;-49
2023/04/23 12:17:09;;;;;;;2.60;0.93;;;22.60;44.90;;;;;;5008922;28;20041;-48
2023/04/23 12:19:35;;;;;;;1.77;0.82;;;22.70;44.50;;;;;;5030054;28;20052;-47
2023/04/23 12:22:03;;;;;;;2.03;0.80;;;22.80;44.80;;;;;;5028973;28;20042;-49
2023/04/23 12:24:43;;;;;;;2.67;0.93;;;22.90;44.00;;;;;;5023936;28;20065;-47
2023/04/23 12:27:14;;;;;;;4.28;0.90;;;23.00;43.70;;;;;;5013484;28;20049;-48
2023/04/23 12:29:41;;;;;;;1.73;1.17;;;23.10;43.40;;;;;;5029147;28;20056;-50
2023/04/23 12:32:10;;;;;;;0.93;0.40;;;23.10;43.50;;;;;;5022730;28;20107;-47
2023/04/23 12:34:49;;;;;;;1.45;0.70;;;23.20;43.30;;;;;;5025511;28;20064;-47
2023/04/23 12:37:16;;;;;;;1.35;1.00;;;23.30;43.40;;;;;;5009590;28;20033;-48
2023/04/23 12:39:46;;;;;;;2.80;0.70;;;23.40;44.10;;;;;;5027854;28;20068;-51
2023/04/23 12:42:13;;;;;;;1.85;0.73;;;23.40;43.90;;;;;;5021270;28;20037;-47
2023/04/23 12:44:39;;;;;;;2.47;0.88;;;23.50;43.70;;;;;;5025678;28;20041;-51
2023/04/23 12:47:10;;;;;;;2.88;0.73;;;23.60;43.60;;;;;;5028118;28;20041;-49
2023/04/23 12:49:38;;;;;;;1.15;0.63;;;23.80;42.80;;;;;;5021615;28;20513;-48